sensor_id;sensor_type;location;lat;lon;timestamp;temperature;humidity
7290;DHT22;63176;52.678;13.250;2023-12-04T00:01:10;-3.90;99.90
7290;DHT22;63176;52.678;13.250;2023-12-04T00:03:36;-4.00;99.90
7290;DHT22;63176;52.678;13.250;2023-12-04T00:06:01;-4.00;99.90
7290;DHT22;63176;52.678;13.250;2023-12-04T00:08:27;-4.10;99.90
7290;DHT22;63176;52.678;13.250;2023-12-04T00:10:53;-4.10;99.90
7290;DHT22;63176;52.678;13.250;2023-12-04T00:13:19;-4.20;99.90
7290;DHT22;63176;52.678;13.250;2023-12-04T00:15:45;-4.20;99.90
7290;DHT22;63176;52.678;13.250;2023-12-04T00:18:10;-4.20;99.90
7290;DHT22;63176;52.678;13.250;2023-12-04T00:20:36;-4.30;99.90
7290;DHT22;63176;52.678;13.250;2023-12-04T00:23:02;-4.30;99.90
7290;DHT22;63176;52.678;13.250;2023-12-04T00:25:28;-4.30;99.90
7290;DHT22;63176;52.678;13.250;2023-12-04T00:27:53;-4.40;99.90
7290;DHT22;63176;52.678;13.250;2023-12-04T00:30:19;-4.40;99.90
7290;DHT22;63176;52.678;13.250;2023-12-04T00:32:45;-4.40;99.90
7290;DHT22;63176;52.678;13.250;2023-12-04T00:35:10;-4.40;99.90
7290;DHT22;63176;52.678;13.250;2023-12-04T00:37:36;-4.50;99.90
7290;DHT22;63176;52.678;13.250;2023-12-04T00:40:05;-4.60;99.90
7290;DHT22;63176;52.678;13.250;2023-12-04T00:42:31;-4.50;99.90
7290;DHT22;63176;52.678;13.250;2023-12-04T00:44:56;-4.30;99.90
7290;DHT22;63176;52.678;13.250;2023-12-04T00:47:22;-4.30;99.90
7290;DHT22;63176;52.678;13.250;2023-12-04T00:49:48;-4.40;99.90
7290;DHT22;63176;52.678;13.250;2023-12-04T00:52:13;-4.50;99.90
7290;DHT22;63176;52.678;13.250;2023-12-04T00:54:39;-4.50;99.90
7290;DHT22;63176;52.678;13.250;2023-12-04T00:57:06;-4.60;99.90
7290;DHT22;63176;52.678;13.250;2023-12-04T00:59:32;-4.50;99.90
7290;DHT22;63176;52.678;13.250;2023-12-04T01:01:57;-4.70;99.90
7290;DHT22;63176;52.678;13.250;2023-12-04T01:04:23;-4.70;99.90
7290;DHT22;63176;52.678;13.250;2023-12-04T01:06:48;-4.80;99.90
7290;DHT22;63176;52.678;13.250;2023-12-04T01:09:14;-4.80;99.90
7290;DHT22;63176;52.678;13.250;2023-12-04T01:11:40;-4.90;99.90
7290;DHT22;63176;52.678;13.250;2023-12-04T01:14:05;-4.90;99.90
7290;DHT22;63176;52.678;13.250;2023-12-04T01:16:31;-5.10;99.90
7290;DHT22;63176;52.678;13.250;2023-12-04T01:18:57;-4.90;99.90
7290;DHT22;63176;52.678;13.250;2023-12-04T01:21:22;-4.90;99.90
7290;DHT22;63176;52.678;13.250;2023-12-04T01:23:48;-5.00;99.90
7290;DHT22;63176;52.678;13.250;2023-12-04T01:26:13;-4.90;99.90
7290;DHT22;63176;52.678;13.250;2023-12-04T01:28:39;-5.00;99.90
7290;DHT22;63176;52.678;13.250;2023-12-04T01:31:06;-5.00;99.90
7290;DHT22;63176;52.678;13.250;2023-12-04T01:33:31;-4.90;99.90
7290;DHT22;63176;52.678;13.250;2023-12-04T01:35:57;-5.00;99.90
7290;DHT22;63176;52.678;13.250;2023-12-04T01:38:22;-4.90;99.90
7290;DHT22;63176;52.678;13.250;2023-12-04T01:40:48;-4.90;99.90
7290;DHT22;63176;52.678;13.250;2023-12-04T01:43:14;-4.90;99.90
7290;DHT22;63176;52.678;13.250;2023-12-04T01:45:40;-4.90;99.90
7290;DHT22;63176;52.678;13.250;2023-12-04T01:48:07;-4.90;99.90
7290;DHT22;63176;52.678;13.250;2023-12-04T01:50:35;-4.80;99.90
7290;DHT22;63176;52.678;13.250;2023-12-04T01:53:01;-4.70;99.90
7290;DHT22;63176;52.678;13.250;2023-12-04T01:55:28;-4.60;99.90
7290;DHT22;63176;52.678;13.250;2023-12-04T01:57:54;-4.50;99.90
7290;DHT22;63176;52.678;13.250;2023-12-04T02:00:21;-4.40;99.90
7290;DHT22;63176;52.678;13.250;2023-12-04T02:02:47;-4.40;99.90
7290;DHT22;63176;52.678;13.250;2023-12-04T02:05:13;-4.30;99.90
7290;DHT22;63176;52.678;13.250;2023-12-04T02:07:41;-4.30;99.90
7290;DHT22;63176;52.678;13.250;2023-12-04T02:10:07;-4.20;99.90
7290;DHT22;63176;52.678;13.250;2023-12-04T02:12:34;-4.20;99.90
7290;DHT22;63176;52.678;13.250;2023-12-04T02:15:00;-4.20;99.90
7290;DHT22;63176;52.678;13.250;2023-12-04T02:17:26;-4.20;99.90
7290;DHT22;63176;52.678;13.250;2023-12-04T02:19:53;-4.20;99.90
7290;DHT22;63176;52.678;13.250;2023-12-04T02:22:19;-4.10;99.90
7290;DHT22;63176;52.678;13.250;2023-12-04T02:24:46;-4.10;99.90
7290;DHT22;63176;52.678;13.250;2023-12-04T02:27:25;-4.10;99.90
7290;DHT22;63176;52.678;13.250;2023-12-04T02:29:54;-4.00;99.90
7290;DHT22;63176;52.678;13.250;2023-12-04T02:32:22;-3.90;99.90
7290;DHT22;63176;52.678;13.250;2023-12-04T02:34:49;-3.90;99.90
7290;DHT22;63176;52.678;13.250;2023-12-04T02:37:17;-3.80;99.90
7290;DHT22;63176;52.678;13.250;2023-12-04T02:39:43;-3.70;99.90
7290;DHT22;63176;52.678;13.250;2023-12-04T02:42:09;-3.80;99.90
7290;DHT22;63176;52.678;13.250;2023-12-04T02:44:39;-3.60;99.90
7290;DHT22;63176;52.678;13.250;2023-12-04T02:47:04;-3.70;99.90
7290;DHT22;63176;52.678;13.250;2023-12-04T02:49:30;-3.70;99.90
7290;DHT22;63176;52.678;13.250;2023-12-04T02:51:56;-3.70;99.90
7290;DHT22;63176;52.678;13.250;2023-12-04T02:54:22;-3.70;99.90
7290;DHT22;63176;52.678;13.250;2023-12-04T02:56:49;-3.70;99.90
7290;DHT22;63176;52.678;13.250;2023-12-04T02:59:14;-3.60;99.90
7290;DHT22;63176;52.678;13.250;2023-12-04T03:01:40;-3.60;99.90
7290;DHT22;63176;52.678;13.250;2023-12-04T03:04:06;-3.60;99.90
7290;DHT22;63176;52.678;13.250;2023-12-04T03:06:31;-3.70;99.90
7290;DHT22;63176;52.678;13.250;2023-12-04T03:08:58;-3.60;99.90
7290;DHT22;63176;52.678;13.250;2023-12-04T03:11:24;-3.60;99.90
7290;DHT22;63176;52.678;13.250;2023-12-04T03:13:50;-3.60;99.90
7290;DHT22;63176;52.678;13.250;2023-12-04T03:16:19;-3.60;99.90
7290;DHT22;63176;52.678;13.250;2023-12-04T03:18:45;-3.50;99.90
7290;DHT22;63176;52.678;13.250;2023-12-04T03:21:11;-3.50;99.90
7290;DHT22;63176;52.678;13.250;2023-12-04T03:23:36;-3.50;99.90
7290;DHT22;63176;52.678;13.250;2023-12-04T03:26:02;-3.50;99.90
7290;DHT22;63176;52.678;13.250;2023-12-04T03:28:28;-3.50;99.90
7290;DHT22;63176;52.678;13.250;2023-12-04T03:30:54;-3.50;99.90
7290;DHT22;63176;52.678;13.250;2023-12-04T03:33:20;-3.50;99.90
7290;DHT22;63176;52.678;13.250;2023-12-04T03:35:45;-3.40;99.90
7290;DHT22;63176;52.678;13.250;2023-12-04T03:38:11;-3.30;99.90
7290;DHT22;63176;52.678;13.250;2023-12-04T03:40:37;-3.20;99.90
7290;DHT22;63176;52.678;13.250;2023-12-04T03:43:02;-3.30;99.90
7290;DHT22;63176;52.678;13.250;2023-12-04T03:45:28;-3.30;99.90
7290;DHT22;63176;52.678;13.250;2023-12-04T03:47:54;-3.30;99.90
7290;DHT22;63176;52.678;13.250;2023-12-04T03:50:19;-3.30;99.90
7290;DHT22;63176;52.678;13.250;2023-12-04T03:52:45;-3.40;99.90
7290;DHT22;63176;52.678;13.250;2023-12-04T03:55:11;-3.40;99.90
7290;DHT22;63176;52.678;13.250;2023-12-04T03:57:36;-3.40;99.90
7290;DHT22;63176;52.678;13.250;2023-12-04T04:00:03;-3.30;99.90
7290;DHT22;63176;52.678;13.250;2023-12-04T04:02:28;-3.30;99.90
7290;DHT22;63176;52.678;13.250;2023-12-04T04:04:54;-3.20;99.90
7290;DHT22;63176;52.678;13.250;2023-12-04T04:07:20;-3.20;99.90
7290;DHT22;63176;52.678;13.250;2023-12-04T04:09:46;-3.10;99.90
7290;DHT22;63176;52.678;13.250;2023-12-04T04:12:11;-3.00;99.90
7290;DHT22;63176;52.678;13.250;2023-12-04T04:14:38;-3.00;99.90
7290;DHT22;63176;52.678;13.250;2023-12-04T04:17:04;-3.00;99.90
7290;DHT22;63176;52.678;13.250;2023-12-04T04:19:30;-2.90;99.90
7290;DHT22;63176;52.678;13.250;2023-12-04T04:21:55;-2.90;99.90
7290;DHT22;63176;52.678;13.250;2023-12-04T04:24:21;-2.90;99.90
7290;DHT22;63176;52.678;13.250;2023-12-04T04:26:46;-2.90;99.90
7290;DHT22;63176;52.678;13.250;2023-12-04T04:29:12;-2.80;99.90
7290;DHT22;63176;52.678;13.250;2023-12-04T04:31:38;-2.80;99.90
7290;DHT22;63176;52.678;13.250;2023-12-04T04:34:04;-2.90;99.90
7290;DHT22;63176;52.678;13.250;2023-12-04T04:36:29;-2.90;99.90
7290;DHT22;63176;52.678;13.250;2023-12-04T04:38:55;-2.90;99.90
7290;DHT22;63176;52.678;13.250;2023-12-04T04:41:21;-3.00;99.90
7290;DHT22;63176;52.678;13.250;2023-12-04T04:43:46;-3.10;99.90
7290;DHT22;63176;52.678;13.250;2023-12-04T04:46:12;-3.10;99.90
7290;DHT22;63176;52.678;13.250;2023-12-04T04:48:38;-3.10;99.90
7290;DHT22;63176;52.678;13.250;2023-12-04T04:51:04;-3.00;99.90
7290;DHT22;63176;52.678;13.250;2023-12-04T04:53:29;-3.10;99.90
7290;DHT22;63176;52.678;13.250;2023-12-04T04:55:55;-3.10;99.90
7290;DHT22;63176;52.678;13.250;2023-12-04T04:58:20;-3.10;99.90
7290;DHT22;63176;52.678;13.250;2023-12-04T05:00:46;-3.10;99.90
7290;DHT22;63176;52.678;13.250;2023-12-04T05:03:15;-3.10;99.90
7290;DHT22;63176;52.678;13.250;2023-12-04T05:05:40;-3.10;99.90
7290;DHT22;63176;52.678;13.250;2023-12-04T05:08:06;-3.10;99.90
7290;DHT22;63176;52.678;13.250;2023-12-04T05:10:32;-3.10;99.90
7290;DHT22;63176;52.678;13.250;2023-12-04T05:12:57;-3.20;99.90
7290;DHT22;63176;52.678;13.250;2023-12-04T05:15:23;-3.20;99.90
7290;DHT22;63176;52.678;13.250;2023-12-04T05:17:48;-3.30;99.90
7290;DHT22;63176;52.678;13.250;2023-12-04T05:20:14;-3.30;99.90
7290;DHT22;63176;52.678;13.250;2023-12-04T05:22:40;-3.30;99.90
7290;DHT22;63176;52.678;13.250;2023-12-04T05:25:06;-3.40;99.90
7290;DHT22;63176;52.678;13.250;2023-12-04T05:27:32;-3.30;99.90
7290;DHT22;63176;52.678;13.250;2023-12-04T05:29:58;-3.40;99.90
7290;DHT22;63176;52.678;13.250;2023-12-04T05:32:23;-3.40;99.90
7290;DHT22;63176;52.678;13.250;2023-12-04T05:34:49;-3.50;99.90
7290;DHT22;63176;52.678;13.250;2023-12-04T05:37:15;-3.50;99.90
7290;DHT22;63176;52.678;13.250;2023-12-04T05:39:41;-3.50;99.90
7290;DHT22;63176;52.678;13.250;2023-12-04T05:42:07;-3.60;99.90
7290;DHT22;63176;52.678;13.250;2023-12-04T05:44:34;-3.60;99.90
7290;DHT22;63176;52.678;13.250;2023-12-04T05:47:00;-3.70;99.90
7290;DHT22;63176;52.678;13.250;2023-12-04T05:49:26;-3.70;99.90
7290;DHT22;63176;52.678;13.250;2023-12-04T05:51:52;-3.70;99.90
7290;DHT22;63176;52.678;13.250;2023-12-04T05:54:17;-3.70;99.90
7290;DHT22;63176;52.678;13.250;2023-12-04T05:56:43;-3.70;99.90
7290;DHT22;63176;52.678;13.250;2023-12-04T05:59:09;-3.70;99.90
7290;DHT22;63176;52.678;13.250;2023-12-04T06:01:34;-3.70;99.90
7290;DHT22;63176;52.678;13.250;2023-12-04T06:04:00;-3.60;99.90
7290;DHT22;63176;52.678;13.250;2023-12-04T06:06:26;-3.50;99.90
7290;DHT22;63176;52.678;13.250;2023-12-04T06:08:52;-3.40;99.90
7290;DHT22;63176;52.678;13.250;2023-12-04T06:11:18;-3.20;99.90
7290;DHT22;63176;52.678;13.250;2023-12-04T06:13:43;-3.20;99.90
7290;DHT22;63176;52.678;13.250;2023-12-04T06:16:09;-3.10;99.90
7290;DHT22;63176;52.678;13.250;2023-12-04T06:18:35;-3.10;99.90
7290;DHT22;63176;52.678;13.250;2023-12-04T06:21:00;-2.90;99.90
7290;DHT22;63176;52.678;13.250;2023-12-04T06:23:26;-3.00;99.90
7290;DHT22;63176;52.678;13.250;2023-12-04T06:25:52;-3.00;99.90
7290;DHT22;63176;52.678;13.250;2023-12-04T06:28:18;-3.00;99.90
7290;DHT22;63176;52.678;13.250;2023-12-04T06:30:44;-2.90;99.90
7290;DHT22;63176;52.678;13.250;2023-12-04T06:33:10;-2.80;99.90
7290;DHT22;63176;52.678;13.250;2023-12-04T06:35:36;-2.90;99.90
7290;DHT22;63176;52.678;13.250;2023-12-04T06:38:06;-2.80;99.90
7290;DHT22;63176;52.678;13.250;2023-12-04T06:40:32;-2.80;99.90
7290;DHT22;63176;52.678;13.250;2023-12-04T06:42:58;-2.80;99.90
7290;DHT22;63176;52.678;13.250;2023-12-04T06:45:24;-2.40;99.90
7290;DHT22;63176;52.678;13.250;2023-12-04T06:47:50;-2.70;99.90
7290;DHT22;63176;52.678;13.250;2023-12-04T06:50:16;-2.70;99.90
7290;DHT22;63176;52.678;13.250;2023-12-04T06:52:42;-2.60;99.90
7290;DHT22;63176;52.678;13.250;2023-12-04T06:55:08;-2.60;99.90
7290;DHT22;63176;52.678;13.250;2023-12-04T06:57:34;-2.60;99.90
7290;DHT22;63176;52.678;13.250;2023-12-04T07:00:00;-2.60;99.90
7290;DHT22;63176;52.678;13.250;2023-12-04T07:02:25;-2.50;99.90
7290;DHT22;63176;52.678;13.250;2023-12-04T07:04:51;-2.50;99.90
7290;DHT22;63176;52.678;13.250;2023-12-04T07:07:17;-2.50;99.90
7290;DHT22;63176;52.678;13.250;2023-12-04T07:09:42;-2.50;99.90
7290;DHT22;63176;52.678;13.250;2023-12-04T07:12:08;-2.40;99.90
7290;DHT22;63176;52.678;13.250;2023-12-04T07:14:34;-2.30;99.90
7290;DHT22;63176;52.678;13.250;2023-12-04T07:16:59;-2.40;99.90
7290;DHT22;63176;52.678;13.250;2023-12-04T07:19:25;-2.30;99.90
7290;DHT22;63176;52.678;13.250;2023-12-04T07:21:52;-2.30;99.90
7290;DHT22;63176;52.678;13.250;2023-12-04T07:24:18;-2.20;99.90
7290;DHT22;63176;52.678;13.250;2023-12-04T07:26:43;-2.30;99.90
7290;DHT22;63176;52.678;13.250;2023-12-04T07:29:09;-2.20;99.90
7290;DHT22;63176;52.678;13.250;2023-12-04T07:31:34;-2.10;99.90
7290;DHT22;63176;52.678;13.250;2023-12-04T07:34:00;-2.10;99.90
7290;DHT22;63176;52.678;13.250;2023-12-04T07:36:27;-2.20;99.90
7290;DHT22;63176;52.678;13.250;2023-12-04T07:38:53;-2.10;99.90
7290;DHT22;63176;52.678;13.250;2023-12-04T07:41:19;-2.10;99.90
7290;DHT22;63176;52.678;13.250;2023-12-04T07:43:45;-2.10;99.90
7290;DHT22;63176;52.678;13.250;2023-12-04T07:46:11;-2.10;99.90
7290;DHT22;63176;52.678;13.250;2023-12-04T07:48:39;-2.10;99.90
7290;DHT22;63176;52.678;13.250;2023-12-04T07:51:06;-2.10;99.90
7290;DHT22;63176;52.678;13.250;2023-12-04T07:53:32;-2.00;99.90
7290;DHT22;63176;52.678;13.250;2023-12-04T07:56:00;-2.00;99.90
7290;DHT22;63176;52.678;13.250;2023-12-04T07:58:25;-2.00;99.90
7290;DHT22;63176;52.678;13.250;2023-12-04T08:00:51;-1.90;99.90
7290;DHT22;63176;52.678;13.250;2023-12-04T08:03:17;-1.80;99.90
7290;DHT22;63176;52.678;13.250;2023-12-04T08:05:42;-1.80;99.90
7290;DHT22;63176;52.678;13.250;2023-12-04T08:08:08;-1.70;99.90
7290;DHT22;63176;52.678;13.250;2023-12-04T08:10:33;-1.70;99.90
7290;DHT22;63176;52.678;13.250;2023-12-04T08:12:59;-1.70;99.90
7290;DHT22;63176;52.678;13.250;2023-12-04T08:15:25;-1.70;99.90
7290;DHT22;63176;52.678;13.250;2023-12-04T08:17:51;-1.60;99.90
7290;DHT22;63176;52.678;13.250;2023-12-04T08:20:17;-1.50;99.90
7290;DHT22;63176;52.678;13.250;2023-12-04T08:22:42;-1.60;99.90
7290;DHT22;63176;52.678;13.250;2023-12-04T08:25:11;-1.50;99.90
7290;DHT22;63176;52.678;13.250;2023-12-04T08:27:36;-1.50;99.90
7290;DHT22;63176;52.678;13.250;2023-12-04T08:30:04;-1.50;99.90
7290;DHT22;63176;52.678;13.250;2023-12-04T08:32:30;-1.40;99.90
7290;DHT22;63176;52.678;13.250;2023-12-04T08:34:55;-1.40;99.90
7290;DHT22;63176;52.678;13.250;2023-12-04T08:37:21;-1.20;99.90
7290;DHT22;63176;52.678;13.250;2023-12-04T08:39:47;-1.40;99.90
7290;DHT22;63176;52.678;13.250;2023-12-04T08:42:12;-1.30;99.90
7290;DHT22;63176;52.678;13.250;2023-12-04T08:44:38;-1.30;99.90
7290;DHT22;63176;52.678;13.250;2023-12-04T08:47:04;-1.30;99.90
7290;DHT22;63176;52.678;13.250;2023-12-04T08:49:30;-1.30;99.90
7290;DHT22;63176;52.678;13.250;2023-12-04T08:51:56;-1.20;99.90
7290;DHT22;63176;52.678;13.250;2023-12-04T08:54:22;-1.20;99.90
7290;DHT22;63176;52.678;13.250;2023-12-04T08:56:47;-1.20;99.90
7290;DHT22;63176;52.678;13.250;2023-12-04T08:59:13;-1.20;99.90
7290;DHT22;63176;52.678;13.250;2023-12-04T09:01:39;-1.20;99.90
7290;DHT22;63176;52.678;13.250;2023-12-04T09:04:04;-0.90;99.90
7290;DHT22;63176;52.678;13.250;2023-12-04T09:06:30;-1.10;99.90
7290;DHT22;63176;52.678;13.250;2023-12-04T09:08:56;-1.10;99.90
7290;DHT22;63176;52.678;13.250;2023-12-04T09:11:21;-1.00;99.90
7290;DHT22;63176;52.678;13.250;2023-12-04T09:13:47;-1.00;99.90
7290;DHT22;63176;52.678;13.250;2023-12-04T09:16:13;-1.00;99.90
7290;DHT22;63176;52.678;13.250;2023-12-04T09:18:39;-1.00;99.90
7290;DHT22;63176;52.678;13.250;2023-12-04T09:21:05;-1.00;99.90
7290;DHT22;63176;52.678;13.250;2023-12-04T09:23:30;-1.00;99.90
7290;DHT22;63176;52.678;13.250;2023-12-04T09:25:56;-0.90;99.90
7290;DHT22;63176;52.678;13.250;2023-12-04T09:28:22;-0.90;99.90
7290;DHT22;63176;52.678;13.250;2023-12-04T09:30:47;-0.90;99.90
7290;DHT22;63176;52.678;13.250;2023-12-04T09:33:13;-0.90;99.90
7290;DHT22;63176;52.678;13.250;2023-12-04T09:35:39;-0.90;99.90
7290;DHT22;63176;52.678;13.250;2023-12-04T09:38:04;-0.90;99.90
7290;DHT22;63176;52.678;13.250;2023-12-04T09:40:30;-0.80;99.90
7290;DHT22;63176;52.678;13.250;2023-12-04T09:42:56;-0.80;99.90
7290;DHT22;63176;52.678;13.250;2023-12-04T09:45:24;-0.80;99.90
7290;DHT22;63176;52.678;13.250;2023-12-04T09:47:50;-0.70;99.90
7290;DHT22;63176;52.678;13.250;2023-12-04T09:50:16;-0.70;99.90
7290;DHT22;63176;52.678;13.250;2023-12-04T09:52:48;-0.60;99.90
7290;DHT22;63176;52.678;13.250;2023-12-04T09:55:16;-0.60;99.90
7290;DHT22;63176;52.678;13.250;2023-12-04T09:57:43;-0.60;99.90
7290;DHT22;63176;52.678;13.250;2023-12-04T10:00:11;-0.60;99.90
7290;DHT22;63176;52.678;13.250;2023-12-04T10:02:39;-0.60;99.90
7290;DHT22;63176;52.678;13.250;2023-12-04T10:05:05;-0.50;99.90
7290;DHT22;63176;52.678;13.250;2023-12-04T10:07:31;-0.40;99.90
7290;DHT22;63176;52.678;13.250;2023-12-04T10:09:57;-0.40;99.90
7290;DHT22;63176;52.678;13.250;2023-12-04T10:12:22;-0.40;99.90
7290;DHT22;63176;52.678;13.250;2023-12-04T10:15:08;-0.40;99.90
7290;DHT22;63176;52.678;13.250;2023-12-04T10:17:35;-0.30;99.90
7290;DHT22;63176;52.678;13.250;2023-12-04T10:20:08;-0.20;99.90
7290;DHT22;63176;52.678;13.250;2023-12-04T10:22:51;-0.10;99.90
7290;DHT22;63176;52.678;13.250;2023-12-04T10:25:17;-0.10;99.90
7290;DHT22;63176;52.678;13.250;2023-12-04T10:27:44;0.00;99.90
7290;DHT22;63176;52.678;13.250;2023-12-04T10:30:10;0.00;99.90
7290;DHT22;63176;52.678;13.250;2023-12-04T10:32:47;0.10;99.90
7290;DHT22;63176;52.678;13.250;2023-12-04T10:35:12;0.10;99.90
7290;DHT22;63176;52.678;13.250;2023-12-04T10:37:39;0.20;99.90
7290;DHT22;63176;52.678;13.250;2023-12-04T10:40:05;0.40;99.90
7290;DHT22;63176;52.678;13.250;2023-12-04T10:42:34;0.30;99.90
7290;DHT22;63176;52.678;13.250;2023-12-04T10:45:00;0.30;99.90
7290;DHT22;63176;52.678;13.250;2023-12-04T10:47:29;0.40;99.90
7290;DHT22;63176;52.678;13.250;2023-12-04T10:49:56;0.50;99.90
7290;DHT22;63176;52.678;13.250;2023-12-04T10:52:22;0.70;99.90
7290;DHT22;63176;52.678;13.250;2023-12-04T10:54:49;0.60;99.90
7290;DHT22;63176;52.678;13.250;2023-12-04T10:57:27;0.70;99.90
7290;DHT22;63176;52.678;13.250;2023-12-04T10:59:58;0.60;99.90
7290;DHT22;63176;52.678;13.250;2023-12-04T11:02:26;0.60;99.90
7290;DHT22;63176;52.678;13.250;2023-12-04T11:05:01;0.60;99.90
7290;DHT22;63176;52.678;13.250;2023-12-04T11:07:29;0.60;99.90
7290;DHT22;63176;52.678;13.250;2023-12-04T11:09:57;0.60;99.90
7290;DHT22;63176;52.678;13.250;2023-12-04T11:12:25;0.60;99.90
7290;DHT22;63176;52.678;13.250;2023-12-04T11:14:59;0.60;99.90
7290;DHT22;63176;52.678;13.250;2023-12-04T11:17:31;0.60;99.90
7290;DHT22;63176;52.678;13.250;2023-12-04T11:20:04;0.60;99.90
7290;DHT22;63176;52.678;13.250;2023-12-04T11:22:34;0.70;99.90
7290;DHT22;63176;52.678;13.250;2023-12-04T11:25:02;0.70;99.90
7290;DHT22;63176;52.678;13.250;2023-12-04T11:27:31;0.70;99.90
7290;DHT22;63176;52.678;13.250;2023-12-04T11:29:57;0.70;99.90
7290;DHT22;63176;52.678;13.250;2023-12-04T11:32:24;0.70;99.90
7290;DHT22;63176;52.678;13.250;2023-12-04T11:34:57;0.70;99.90
7290;DHT22;63176;52.678;13.250;2023-12-04T11:37:24;0.70;99.90
7290;DHT22;63176;52.678;13.250;2023-12-04T11:39:50;0.70;99.90
7290;DHT22;63176;52.678;13.250;2023-12-04T11:42:24;0.70;99.90
7290;DHT22;63176;52.678;13.250;2023-12-04T11:44:55;1.00;99.90
7290;DHT22;63176;52.678;13.250;2023-12-04T11:47:21;0.70;99.90
7290;DHT22;63176;52.678;13.250;2023-12-04T11:49:46;0.70;99.90
7290;DHT22;63176;52.678;13.250;2023-12-04T11:52:12;0.70;99.90
7290;DHT22;63176;52.678;13.250;2023-12-04T11:57:24;0.80;99.90
7290;DHT22;63176;52.678;13.250;2023-12-04T12:00:21;0.80;99.90
7290;DHT22;63176;52.678;13.250;2023-12-04T12:02:48;0.80;99.90
7290;DHT22;63176;52.678;13.250;2023-12-04T12:05:15;0.70;99.90
7290;DHT22;63176;52.678;13.250;2023-12-04T12:07:41;0.80;99.90
7290;DHT22;63176;52.678;13.250;2023-12-04T12:10:07;0.80;99.90
7290;DHT22;63176;52.678;13.250;2023-12-04T12:12:34;0.80;99.90
7290;DHT22;63176;52.678;13.250;2023-12-04T12:15:01;1.10;99.90
7290;DHT22;63176;52.678;13.250;2023-12-04T12:17:27;1.00;99.90
7290;DHT22;63176;52.678;13.250;2023-12-04T12:19:53;0.80;99.90
7290;DHT22;63176;52.678;13.250;2023-12-04T12:22:19;0.80;99.90
7290;DHT22;63176;52.678;13.250;2023-12-04T12:24:45;0.80;99.90
7290;DHT22;63176;52.678;13.250;2023-12-04T12:27:10;0.80;99.90
7290;DHT22;63176;52.678;13.250;2023-12-04T12:29:36;0.80;99.90
7290;DHT22;63176;52.678;13.250;2023-12-04T12:32:02;0.80;99.90
7290;DHT22;63176;52.678;13.250;2023-12-04T12:34:28;0.80;99.90
7290;DHT22;63176;52.678;13.250;2023-12-04T12:36:54;0.80;99.90
7290;DHT22;63176;52.678;13.250;2023-12-04T12:39:20;0.80;99.90
7290;DHT22;63176;52.678;13.250;2023-12-04T12:41:50;0.80;99.90
7290;DHT22;63176;52.678;13.250;2023-12-04T12:44:16;0.80;99.90
7290;DHT22;63176;52.678;13.250;2023-12-04T12:46:41;1.00;99.90
7290;DHT22;63176;52.678;13.250;2023-12-04T12:49:07;0.80;99.90
7290;DHT22;63176;52.678;13.250;2023-12-04T12:51:33;0.80;99.90
7290;DHT22;63176;52.678;13.250;2023-12-04T12:53:59;0.80;99.90
7290;DHT22;63176;52.678;13.250;2023-12-04T12:56:27;0.90;99.90
7290;DHT22;63176;52.678;13.250;2023-12-04T12:58:53;0.90;99.90
7290;DHT22;63176;52.678;13.250;2023-12-04T13:01:22;0.80;99.90
7290;DHT22;63176;52.678;13.250;2023-12-04T13:03:48;0.80;99.90
7290;DHT22;63176;52.678;13.250;2023-12-04T13:06:13;0.80;99.90
7290;DHT22;63176;52.678;13.250;2023-12-04T13:08:39;0.80;99.90
7290;DHT22;63176;52.678;13.250;2023-12-04T13:11:05;0.80;99.90
7290;DHT22;63176;52.678;13.250;2023-12-04T13:13:31;0.90;99.90
7290;DHT22;63176;52.678;13.250;2023-12-04T13:15:57;1.10;99.90
7290;DHT22;63176;52.678;13.250;2023-12-04T13:18:23;0.90;99.90
7290;DHT22;63176;52.678;13.250;2023-12-04T13:20:49;1.10;99.90
7290;DHT22;63176;52.678;13.250;2023-12-04T13:23:14;0.90;99.90
7290;DHT22;63176;52.678;13.250;2023-12-04T13:25:40;0.90;99.90
7290;DHT22;63176;52.678;13.250;2023-12-04T13:28:06;0.90;99.90
7290;DHT22;63176;52.678;13.250;2023-12-04T13:30:32;0.90;99.90
7290;DHT22;63176;52.678;13.250;2023-12-04T13:33:00;0.90;99.90
7290;DHT22;63176;52.678;13.250;2023-12-04T13:35:25;0.80;99.90
7290;DHT22;63176;52.678;13.250;2023-12-04T13:37:51;0.80;99.90
7290;DHT22;63176;52.678;13.250;2023-12-04T13:40:21;0.80;99.90
7290;DHT22;63176;52.678;13.250;2023-12-04T13:42:46;0.70;99.90
7290;DHT22;63176;52.678;13.250;2023-12-04T13:45:30;0.80;99.90
7290;DHT22;63176;52.678;13.250;2023-12-04T13:47:57;0.70;99.90
7290;DHT22;63176;52.678;13.250;2023-12-04T13:50:23;0.80;99.90
7290;DHT22;63176;52.678;13.250;2023-12-04T13:52:48;1.00;99.90
7290;DHT22;63176;52.678;13.250;2023-12-04T13:55:21;0.70;99.90
7290;DHT22;63176;52.678;13.250;2023-12-04T13:58:02;0.70;99.90
7290;DHT22;63176;52.678;13.250;2023-12-04T14:00:27;0.60;99.90
7290;DHT22;63176;52.678;13.250;2023-12-04T14:02:53;0.60;99.90
7290;DHT22;63176;52.678;13.250;2023-12-04T14:05:22;0.60;99.90
7290;DHT22;63176;52.678;13.250;2023-12-04T14:07:48;0.50;99.90
7290;DHT22;63176;52.678;13.250;2023-12-04T14:10:14;0.50;99.90
7290;DHT22;63176;52.678;13.250;2023-12-04T14:12:43;0.50;99.90
7290;DHT22;63176;52.678;13.250;2023-12-04T14:15:08;0.50;99.90
7290;DHT22;63176;52.678;13.250;2023-12-04T14:17:34;0.40;99.90
7290;DHT22;63176;52.678;13.250;2023-12-04T14:20:00;0.40;99.90
7290;DHT22;63176;52.678;13.250;2023-12-04T14:22:25;0.40;99.90
7290;DHT22;63176;52.678;13.250;2023-12-04T14:24:51;0.40;99.90
7290;DHT22;63176;52.678;13.250;2023-12-04T14:27:17;0.40;99.90
7290;DHT22;63176;52.678;13.250;2023-12-04T14:29:43;0.30;99.90
7290;DHT22;63176;52.678;13.250;2023-12-04T14:32:10;0.30;99.90
7290;DHT22;63176;52.678;13.250;2023-12-04T14:34:36;0.30;99.90
7290;DHT22;63176;52.678;13.250;2023-12-04T14:37:01;0.20;99.90
7290;DHT22;63176;52.678;13.250;2023-12-04T14:39:27;0.20;99.90
7290;DHT22;63176;52.678;13.250;2023-12-04T14:41:53;0.20;99.90
7290;DHT22;63176;52.678;13.250;2023-12-04T14:44:18;0.20;99.90
7290;DHT22;63176;52.678;13.250;2023-12-04T14:46:44;0.20;99.90
7290;DHT22;63176;52.678;13.250;2023-12-04T14:49:11;0.20;99.90
7290;DHT22;63176;52.678;13.250;2023-12-04T14:51:37;0.20;99.90
7290;DHT22;63176;52.678;13.250;2023-12-04T14:54:02;0.20;99.90
7290;DHT22;63176;52.678;13.250;2023-12-04T14:56:47;0.20;99.90
7290;DHT22;63176;52.678;13.250;2023-12-04T14:59:31;0.20;99.90
7290;DHT22;63176;52.678;13.250;2023-12-04T15:02:14;0.20;99.90
7290;DHT22;63176;52.678;13.250;2023-12-04T15:05:03;0.20;99.90
7290;DHT22;63176;52.678;13.250;2023-12-04T15:07:29;0.20;99.90
7290;DHT22;63176;52.678;13.250;2023-12-04T15:10:13;0.20;99.90
7290;DHT22;63176;52.678;13.250;2023-12-04T15:13:01;0.20;99.90
7290;DHT22;63176;52.678;13.250;2023-12-04T15:15:30;0.20;99.90
7290;DHT22;63176;52.678;13.250;2023-12-04T15:18:08;0.20;99.90
7290;DHT22;63176;52.678;13.250;2023-12-04T15:21:01;0.10;99.90
7290;DHT22;63176;52.678;13.250;2023-12-04T15:23:27;0.10;99.90
7290;DHT22;63176;52.678;13.250;2023-12-04T15:25:53;0.10;99.90
7290;DHT22;63176;52.678;13.250;2023-12-04T15:28:18;0.20;99.90
7290;DHT22;63176;52.678;13.250;2023-12-04T15:30:44;0.10;99.90
7290;DHT22;63176;52.678;13.250;2023-12-04T15:33:12;0.10;99.90
7290;DHT22;63176;52.678;13.250;2023-12-04T15:35:38;0.10;99.90